Terminal Aerodrome Forecast
Issued by NWS Chicago, IL

Home | Current Version | Previous Version | Graphics & Text | Print | Product List | Glossary On
Versions: 1 2 3 4 5 6 7 8 9 10 11 12 13 14 15 16 17 18 19 20 21 22 23 24 25 26 27 28 29 30 31
000
FTUS43 KLOT 290302 AAA
TAFRFD
TAF AMD
KRFD 290302Z 2903/2924 11005KT 6SM BR SCT020 OVC035
     FM290700 VRB03KT 3SM BR BKN005 OVC020
     FM291400 02008KT P6SM SCT005 BKN012
     FM291800 34008KT P6SM VCSH BKN035=

USA.gov is the U.S. government's official web portal to all federal, state and local government web resources and services.